2O6 weather

Public forecast

Using degrees Fahrenheit for public forecast. Weather courtesy of forecast.io.

Closest aviation weather report (METAR) to Chowchilla Airport

Closest report is Madera Municipal Airport, 9.9 nm (18.2 km) SE. Retrieved 2020/08/15 13:53 UTC (46 minutes ago):

KMAE 151353Z AUTO 00000KT 10SM CLR 23/18 A2986 RMK AO2 SLP109 T02280178

Closest aviation forecast (TAF) to Chowchilla Airport

Closest forecast is Merced Regional Macready Field, 16.4 nm (30.4 km) NW. Retrieved 2020/08/15 12:36 UTC (2 hours ago):

TAF KMCE 151134Z 1512/1612 VRB05KT P6SM SKC FM160000 32008KT P6SM SKC